createdAt,value
2022-10-28T00:03:24.961Z,99.77
2022-10-28T00:08:28.356Z,99.69
2022-10-28T00:13:31.308Z,99.95
2022-10-28T00:18:34.183Z,99.79
2022-10-28T00:23:36.827Z,99.92
2022-10-28T00:28:50.631Z,99.90
2022-10-28T00:33:53.905Z,99.96
2022-10-28T00:38:56.971Z,100.00
2022-10-28T00:44:04.057Z,99.98
2022-10-28T00:49:19.964Z,100.00
2022-10-28T00:54:23.467Z,100.00
2022-10-28T00:59:36.730Z,100.00
2022-10-28T01:04:39.827Z,100.00
2022-10-28T01:09:42.856Z,99.97
2022-10-28T01:15:04.396Z,99.97
2022-10-28T01:20:37.892Z,100.00
2022-10-28T01:25:49.742Z,100.00
2022-10-28T01:31:26.530Z,100.00
2022-10-28T01:36:48.071Z,100.00
2022-10-28T01:41:54.752Z,100.00
2022-10-28T01:46:57.227Z,100.00
2022-10-28T01:52:04.959Z,99.98
2022-10-28T01:57:09.286Z,100.00
2022-10-28T02:02:11.879Z,99.98
2022-10-28T02:07:16.654Z,99.99
2022-10-28T02:12:23.960Z,99.57
2022-10-28T02:17:32.043Z,99.53
2022-10-28T02:22:51.834Z,99.66
2022-10-28T02:28:07.699Z,98.80
2022-10-28T02:33:14.895Z,98.30
2022-10-28T02:38:40.532Z,98.12
2022-10-28T02:43:45.869Z,98.27
2022-10-28T02:48:53.177Z,97.94
2022-10-28T02:54:08.289Z,97.81
2022-10-28T02:59:13.057Z,97.54
2022-10-28T03:04:15.654Z,97.64
2022-10-28T03:09:18.331Z,97.59
2022-10-28T03:14:21.031Z,97.39
2022-10-28T03:19:23.923Z,97.37
2022-10-28T03:24:26.633Z,97.40
2022-10-28T03:29:29.330Z,97.05
2022-10-28T03:34:31.932Z,96.91
2022-10-28T03:39:34.567Z,97.06
2022-10-28T03:44:37.180Z,96.82
2022-10-28T03:49:39.818Z,96.81
2022-10-28T03:54:42.521Z,96.92
2022-10-28T03:59:45.105Z,97.12
2022-10-28T04:04:47.739Z,96.72
2022-10-28T04:09:51.562Z,96.57
2022-10-28T04:14:54.178Z,96.87
2022-10-28T04:19:56.830Z,97.36
2022-10-28T04:24:59.506Z,97.57
2022-10-28T04:30:02.436Z,97.66
2022-10-28T04:35:05.689Z,97.86
2022-10-28T04:40:09.834Z,97.78
2022-10-28T04:45:12.575Z,97.69
2022-10-28T04:50:15.378Z,97.73
2022-10-28T04:55:18.165Z,97.61
2022-10-28T05:00:20.953Z,97.62
2022-10-28T05:05:23.595Z,97.91
2022-10-28T05:10:26.480Z,98.19
2022-10-28T05:15:31.325Z,97.79
2022-10-28T05:20:34.437Z,98.04
2022-10-28T05:25:37.146Z,98.29
2022-10-28T05:30:39.789Z,97.98
2022-10-28T05:35:42.532Z,97.76
2022-10-28T05:40:45.171Z,98.07
2022-10-28T05:45:58.078Z,97.78
2022-10-28T05:51:00.775Z,97.63
2022-10-28T05:56:03.542Z,97.68
2022-10-28T06:01:07.387Z,98.00
2022-10-28T06:06:10.057Z,97.96
2022-10-28T06:11:11.449Z,98.05
2022-10-28T06:16:14.147Z,97.77
2022-10-28T06:21:17.023Z,97.64
2022-10-28T06:26:20.066Z,98.07
2022-10-28T06:31:22.904Z,98.40
2022-10-28T06:36:25.563Z,98.51
2022-10-28T06:41:28.223Z,98.93
2022-10-28T06:46:31.310Z,99.26
2022-10-28T06:51:35.738Z,98.70
2022-10-28T06:56:38.875Z,98.66
2022-10-28T07:01:41.666Z,98.97
2022-10-28T07:06:49.844Z,98.91
2022-10-28T07:11:55.685Z,98.43
2022-10-28T07:17:00.130Z,98.45
2022-10-28T07:22:03.020Z,98.68
2022-10-28T07:27:06.162Z,98.63
2022-10-28T07:32:08.939Z,98.50
2022-10-28T07:37:12.865Z,98.36
2022-10-28T07:42:15.930Z,98.83
2022-10-28T07:47:19.677Z,99.10
2022-10-28T07:52:22.477Z,98.79
2022-10-28T07:57:25.175Z,98.30
2022-10-28T08:02:27.814Z,98.84
2022-10-28T08:07:34.821Z,98.39
2022-10-28T08:12:40.540Z,97.80
2022-10-28T08:17:43.181Z,97.94
2022-10-28T08:22:45.899Z,97.89
2022-10-28T08:27:50.478Z,97.94
2022-10-28T08:33:02.314Z,97.50
2022-10-28T08:38:07.638Z,96.51
2022-10-28T08:43:52.880Z,95.52
2022-10-28T08:49:09.519Z,94.58
2022-10-28T08:54:20.578Z,93.50
2022-10-28T08:59:31.933Z,91.22
2022-10-28T09:04:43.597Z,90.72
2022-10-28T09:10:20.625Z,90.42
2022-10-28T09:15:34.649Z,88.38
2022-10-28T09:20:52.153Z,86.76
2022-10-28T09:25:57.762Z,85.42
2022-10-28T09:31:17.876Z,85.61
2022-10-28T09:36:30.812Z,85.45
2022-10-28T09:41:44.210Z,83.82
2022-10-28T09:46:51.442Z,82.55
2022-10-28T09:52:05.482Z,82.59
2022-10-28T09:57:09.775Z,82.89
2022-10-28T10:02:40.401Z,81.10
2022-10-28T10:07:55.047Z,80.53
2022-10-28T10:13:02.794Z,80.70
2022-10-28T10:18:07.435Z,79.11
2022-10-28T10:23:23.160Z,77.73
2022-10-28T10:28:27.712Z,75.14
2022-10-28T10:33:54.347Z,68.35
2022-10-28T10:39:22.979Z,66.58
2022-10-28T10:44:33.446Z,62.37
2022-10-28T10:49:36.639Z,60.10
2022-10-28T10:54:40.276Z,59.47
2022-10-28T10:59:48.489Z,56.28
2022-10-28T11:04:53.726Z,54.29
2022-10-28T11:09:56.332Z,51.78
2022-10-28T11:15:16.605Z,48.83
2022-10-28T11:20:25.721Z,48.34
2022-10-28T11:25:50.620Z,48.11
2022-10-28T11:31:29.554Z,43.81
2022-10-28T11:36:45.610Z,43.53
2022-10-28T11:42:10.039Z,43.00
2022-10-28T11:47:28.331Z,40.68
2022-10-28T11:52:57.489Z,41.82
2022-10-28T11:58:09.148Z,43.31
2022-10-28T12:03:33.570Z,45.01
2022-10-28T12:09:10.522Z,48.13
2022-10-28T12:14:22.892Z,49.97
2022-10-28T12:19:59.674Z,52.95
2022-10-28T12:25:09.967Z,56.34
2022-10-28T12:30:22.208Z,59.09
2022-10-28T12:35:31.781Z,61.53
2022-10-28T12:40:50.450Z,64.14
2022-10-28T12:45:56.471Z,66.22
2022-10-28T12:51:25.514Z,67.75
2022-10-28T12:56:38.092Z,68.03
2022-10-28T13:01:43.738Z,69.09
2022-10-28T13:07:07.933Z,70.37
2022-10-28T13:12:17.390Z,71.44
2022-10-28T13:17:46.784Z,72.66
2022-10-28T13:22:54.461Z,73.61
2022-10-28T13:28:01.135Z,74.35
2022-10-28T13:33:06.328Z,75.07
2022-10-28T13:38:12.758Z,75.59
2022-10-28T13:43:50.120Z,76.25
2022-10-28T13:48:53.084Z,76.58
2022-10-28T13:53:57.021Z,76.69
2022-10-28T13:59:25.209Z,77.05
2022-10-28T14:04:39.359Z,77.24
2022-10-28T14:10:22.416Z,77.28
2022-10-28T14:15:30.720Z,77.30
2022-10-28T14:20:40.694Z,76.79
2022-10-28T14:25:46.307Z,76.68
2022-10-28T14:31:11.598Z,76.66
2022-10-28T14:36:17.590Z,77.04
2022-10-28T14:41:34.201Z,77.84
2022-10-28T14:47:07.743Z,78.44
2022-10-28T14:52:20.349Z,79.03
2022-10-28T14:57:32.654Z,79.47
2022-10-28T15:02:38.333Z,79.91
2022-10-28T15:07:42.045Z,80.09
2022-10-28T15:12:49.081Z,80.58
2022-10-28T15:17:52.535Z,81.00
2022-10-28T15:23:21.797Z,81.53
2022-10-28T15:28:24.614Z,81.84
2022-10-28T15:33:36.529Z,82.04
2022-10-28T15:38:52.920Z,82.55
2022-10-28T15:44:03.640Z,83.00
2022-10-28T15:49:06.253Z,83.82
2022-10-28T15:54:20.687Z,84.34
2022-10-28T15:59:25.544Z,85.59
2022-10-28T16:04:42.834Z,86.42
2022-10-28T16:09:48.508Z,87.01
2022-10-28T16:14:59.332Z,87.53
2022-10-28T16:20:30.032Z,87.74
2022-10-28T16:25:32.772Z,88.03
2022-10-28T16:30:35.394Z,88.72
2022-10-28T16:35:38.001Z,89.03
2022-10-28T16:40:56.597Z,88.96
2022-10-28T16:46:17.294Z,89.61
2022-10-28T16:51:20.094Z,89.75
2022-10-28T16:56:23.202Z,89.91
2022-10-28T17:01:26.013Z,90.48
2022-10-28T17:06:28.760Z,90.43
2022-10-28T17:16:42.404Z,90.58
2022-10-28T17:21:46.191Z,90.75
2022-10-28T17:26:49.278Z,90.80
2022-10-28T17:31:52.168Z,91.13
2022-10-28T17:37:12.721Z,90.70
2022-10-28T17:42:33.058Z,90.59
2022-10-28T17:47:53.557Z,90.46
2022-10-28T17:53:14.805Z,90.80
2022-10-28T17:58:17.508Z,90.84
2022-10-28T18:03:20.119Z,91.09
2022-10-28T18:08:43.037Z,91.11
2022-10-28T18:14:04.698Z,90.99
2022-10-28T18:19:07.692Z,91.24
2022-10-28T18:24:10.757Z,91.23
2022-10-28T18:29:13.636Z,91.53
2022-10-28T18:34:34.456Z,91.91
2022-10-28T18:39:38.211Z,92.15
2022-10-28T18:44:41.486Z,92.04
2022-10-28T18:49:45.743Z,92.21
2022-10-28T18:54:48.466Z,91.80
2022-10-28T19:05:34.585Z,91.69
2022-10-28T19:10:37.202Z,91.83
2022-10-28T19:15:47.040Z,92.09
2022-10-28T19:21:11.802Z,92.32
2022-10-28T19:26:33.605Z,92.08
2022-10-28T19:31:53.889Z,91.85
2022-10-28T19:36:56.512Z,91.98
2022-10-28T19:41:59.199Z,92.07
2022-10-28T19:47:02.114Z,92.09
2022-10-28T19:52:04.901Z,92.06
2022-10-28T19:57:07.529Z,91.96
2022-10-28T20:02:11.722Z,91.93
2022-10-28T20:07:14.621Z,92.15
2022-10-28T20:12:34.657Z,92.10
2022-10-28T20:17:37.283Z,92.05
2022-10-28T20:22:42.330Z,92.27
2022-10-28T20:27:45.413Z,91.92
2022-10-28T20:32:51.866Z,91.99
2022-10-28T20:37:57.903Z,92.33
2022-10-28T20:43:00.921Z,92.32
2022-10-28T20:48:03.926Z,92.51
2022-10-28T20:53:06.663Z,92.58
2022-10-28T20:58:09.265Z,92.96
2022-10-28T21:03:12.057Z,92.54
2022-10-28T21:08:14.969Z,92.59
2022-10-28T21:13:35.403Z,92.71
2022-10-28T21:18:56.469Z,92.70
2022-10-28T21:23:59.231Z,92.74
2022-10-28T21:29:01.845Z,92.57
2022-10-28T21:34:21.895Z,92.75
2022-10-28T21:39:24.497Z,92.73
2022-10-28T21:44:27.125Z,92.96
2022-10-28T21:49:29.742Z,93.02
2022-10-28T21:54:34.058Z,92.97
2022-10-28T21:59:36.756Z,92.84
2022-10-28T22:04:39.763Z,93.00
2022-10-28T22:09:42.461Z,93.08
2022-10-28T22:15:02.773Z,92.54
2022-10-28T22:20:07.629Z,92.70
2022-10-28T22:25:10.788Z,92.96
2022-10-28T22:30:14.289Z,92.95
2022-10-28T22:35:16.951Z,93.08
2022-10-28T22:40:19.554Z,93.05
2022-10-28T22:45:39.956Z,93.33
2022-10-28T22:50:42.756Z,93.45
2022-10-28T22:56:03.867Z,93.32
2022-10-28T23:01:06.992Z,93.46
2022-10-28T23:06:11.214Z,93.59
2022-10-28T23:11:15.154Z,93.38
2022-10-28T23:16:17.959Z,93.61
2022-10-28T23:21:38.682Z,93.40
2022-10-28T23:26:42.381Z,93.61
2022-10-28T23:31:44.987Z,93.56
2022-10-28T23:36:50.162Z,93.53
2022-10-28T23:41:52.855Z,93.44
2022-10-28T23:46:55.470Z,93.35
2022-10-28T23:51:58.126Z,93.52
2022-10-28T23:57:00.812Z,93.62
